Latest Weather Observations for Tatura

IDV60801

Issued at 4:12 pm EDT Wednesday 19 December 2018 (issued every 10 minutes, with the page automatically refreshed every 10 minutes)

About weather observations | Map of weather stations | Latest weather observations for VIC | Other Formats
Station Details ID: 081049 Name: TATURA INST SUSTAINABLE AG Lat: -36.44 Lon: 145.27 Height: 114.0 m
Data from the previous 72 hours. | See also: Recent months at Tatura
Date/Time
EDT
Temp
°C
App
Temp
°C
Dew
Point
°C
Rel
Hum
%
Delta-T
°C
Wind Press
QNH
hPa
Press
MSL
hPa
Rain since
9am
mm
Dir  Spd
km/h
Gust
km/h
Spd
kts
Gust
kts
19/04:00pm 28.3 24.4 13.4 40 8.9 W 26 35 14 19 - - 0.0
19/03:30pm 29.7 26.0 12.6 35 10.1 W 24 32 13 17 - - 0.0
19/03:00pm 30.4 29.7 13.2 35 10.3 W 9 19 5 10 - - 0.0
19/02:30pm 29.2 28.0 11.7 34 10.2 NW 9 17 5 9 - - 0.0
19/02:00pm 28.8 29.0 13.1 38 9.3 NW 4 17 2 9 - - 0.0
19/01:30pm 27.2 27.0 14.6 46 7.6 W 9 13 5 7 - - 0.0
19/01:00pm 25.3 25.7 16.4 57 5.5 NE 9 15 5 8 - - 0.0
19/12:30pm 24.8 25.4 15.7 57 5.5 NNE 7 13 4 7 - - 0.0
19/12:00pm 23.4 23.6 16.7 66 4.1 NNE 11 17 6 9 - - 0.0
19/11:30am 22.5 23.5 16.3 68 3.8 E 6 11 3 6 - - 0.0
19/11:00am 21.7 21.7 16.2 71 3.3 SE 11 17 6 9 - - 0.0
19/10:30am 20.9 22.8 15.7 72 3.1 CALM 0 6 0 3 - - 0.0
19/10:00am 21.0 20.1 15.8 72 3.1 SSW 15 20 8 11 - - 0.0
19/09:30am 20.4 20.9 15.6 74 2.9 SSE 7 13 4 7 - - 0.0
19/09:00am 19.7 19.5 15.8 78 2.3 SSW 11 15 6 8 - - 0.0
19/08:30am 19.0 18.4 15.7 81 2.0 S 13 17 7 9 - - 0.0
19/08:00am 18.8 19.1 15.9 83 1.7 S 9 13 5 7 - - 0.0
19/07:30am 17.9 17.9 15.3 85 1.5 SSE 9 13 5 7 - - 0.0
19/07:00am 17.6 18.0 15.2 86 1.4 SSE 7 9 4 5 - - 0.0
19/06:30am 17.2 17.7 15.0 87 1.3 SSE 6 7 3 4 - - 0.0
19/06:00am 17.1 17.4 14.9 87 1.3 S 7 11 4 6 - - 0.0
19/05:30am 17.2 17.0 14.8 86 1.4 S 9 11 5 6 - - 0.0
19/05:00am 17.2 17.0 14.7 85 1.4 S 9 13 5 7 - - 0.0
19/04:30am 17.2 17.0 14.7 85 1.4 SSW 9 15 5 8 - - 0.0
19/04:00am 17.5 16.6 14.8 84 1.6 S 13 22 7 12 - - 0.0
19/03:30am 17.4 17.2 14.7 84 1.6 SSW 9 13 5 7 - - 0.0
19/03:00am 17.5 17.3 14.6 83 1.7 S 9 15 5 8 - - 0.0
19/02:30am 17.4 17.2 14.7 84 1.6 SSW 9 15 5 8 - - 0.0
19/02:00am 17.6 17.0 14.5 82 1.8 SSW 11 15 6 8 - - 0.0
19/01:30am 18.1 17.4 14.4 79 2.1 SSW 11 17 6 9 - - 0.0
19/01:00am 18.3 17.6 14.4 78 2.3 SSW 11 15 6 8 - - 0.0
19/12:30am 18.7 17.6 14.4 76 2.5 SSW 13 17 7 9 - - 0.0
19/12:00am 19.0 17.5 14.3 74 2.7 S 15 24 8 13 - - 0.0
 
Date/Time
EDT
Temp
°C
App
Temp
°C
Dew
Point
°C
Rel
Hum
%
Delta-T
°C
Wind Press
QNH
hPa
Press
MSL
hPa
Rain since
9am
mm
Dir  Spd
km/h
Gust
km/h
Spd
kts
Gust
kts
18/11:30pm 19.2 18.1 14.2 73 2.9 S 13 19 7 10 - - 0.0
18/11:00pm 19.7 18.5 14.1 70 3.2 S 13 20 7 11 - - 0.0
18/10:30pm 20.2 17.7 14.1 68 3.5 S 20 30 11 16 - - 0.0
18/10:00pm 20.4 18.0 14.3 68 3.6 SSW 20 28 11 15 - - 0.0
18/09:30pm 21.1 19.2 14.3 65 4.0 SSW 17 28 9 15 - - 0.0
18/09:00pm 21.7 20.2 14.1 62 4.4 SSW 15 20 8 11 - - 0.0
18/08:30pm 22.5 20.9 13.8 58 5.1 SSW 15 20 8 11 - - 0.0
18/08:00pm 23.4 20.7 13.0 52 6.0 S 19 24 10 13 - - 0.0
18/07:30pm 24.6 21.8 12.5 46 7.0 SSW 19 33 10 18 - - 0.0
18/07:00pm 25.6 22.1 11.0 40 8.3 SSW 20 28 11 15 - - 0.0
18/06:30pm 26.5 24.1 12.5 41 8.1 SSW 17 28 9 15 - - 0.0
18/06:00pm 26.8 24.4 12.8 42 8.2 SSW 17 24 9 13 - - 0.0
18/05:30pm 27.0 24.6 13.7 44 7.9 SSW 19 28 10 15 - - 0.0
18/05:00pm 27.3 25.0 12.9 41 8.5 SSW 17 28 9 15 - - 0.0
18/04:30pm 27.1 24.5 13.1 42 8.3 SSW 19 28 10 15 - - 0.0
18/04:00pm 27.6 25.8 13.2 41 8.5 SSW 15 24 8 13 - - 0.0
18/03:30pm 27.4 25.1 13.0 41 8.5 SSW 17 24 9 13 - - 0.0
18/03:00pm 26.9 25.0 14.3 46 7.6 SSW 17 28 9 15 - - 0.0
18/02:30pm 26.9 25.0 14.3 46 7.6 S 17 22 9 12 - - 0.0
18/02:00pm 26.6 24.8 14.4 47 7.3 SSW 17 28 9 15 - - 0.0
18/01:30pm 26.2 24.8 14.6 48 7.0 SSW 15 28 8 15 - - 0.0
18/01:00pm 25.1 23.3 13.3 48 6.9 SW 15 20 8 11 - - 0.0
18/12:30pm 24.6 23.4 14.1 52 6.2 S 13 20 7 11 - - 0.0
18/12:00pm 23.6 22.4 14.0 55 5.7 SSW 13 20 7 11 - - 0.0
18/11:30am 23.8 22.7 14.2 55 5.7 SW 13 19 7 10 - - 0.0
18/11:00am 23.1 23.0 14.9 60 4.9 SSW 9 15 5 8 - - 0.0
18/10:30am 22.7 21.3 14.5 60 4.9 SSW 15 20 8 11 - - 0.0
18/10:00am 21.7 20.6 14.4 63 4.3 S 13 19 7 10 - - 0.0
18/09:30am 20.3 18.6 13.7 66 3.8 S 15 20 8 11 - - 0.0
18/09:00am 19.6 18.0 14.0 70 3.2 S 15 24 8 13 - - 0.0
18/08:30am 18.7 17.0 13.6 72 2.9 S 15 22 8 12 - - 0.0
18/08:00am 17.7 15.9 13.2 75 2.5 S 15 20 8 11 - - 0.0
18/07:30am 16.7 15.2 13.0 79 2.1 S 13 20 7 11 - - 0.0
18/07:00am 15.8 13.9 12.9 83 1.6 S 15 22 8 12 - - 0.0
18/06:30am 15.0 13.5 13.0 88 1.1 S 13 17 7 9 - - 0.0
18/06:00am 14.6 13.5 13.0 90 0.9 S 11 15 6 8 - - 0.0
18/05:30am 14.8 13.3 13.0 89 1.0 S 13 17 7 9 - - 0.0
18/05:00am 15.1 13.6 13.1 88 1.1 S 13 20 7 11 - - 0.0
18/04:30am 15.2 13.7 13.1 87 1.2 S 13 15 7 8 - - 0.0
18/04:00am 15.7 13.9 13.4 86 1.3 S 15 24 8 13 - - 0.0
18/03:30am 15.8 13.7 13.6 87 1.2 S 17 22 9 12 - - 0.0
18/03:00am 16.0 13.9 13.7 86 1.3 S 17 28 9 15 - - 0.0
18/02:30am 16.2 14.2 13.9 86 1.3 S 17 24 9 13 - - 0.0
18/02:00am 16.4 14.4 13.9 85 1.4 S 17 24 9 13 - - 0.0
18/01:30am 16.7 14.7 14.0 84 1.5 S 17 24 9 13 - - 0.0
18/01:00am 17.1 15.1 14.0 82 1.8 S 17 28 9 15 - - 0.0
18/12:30am 17.6 15.7 14.3 81 1.9 S 17 28 9 15 - - 0.0
18/12:00am 18.3 16.0 14.2 77 2.4 S 19 26 10 14 - - 0.0
 
Date/Time
EDT
Temp
°C
App
Temp
°C
Dew
Point
°C
Rel
Hum
%
Delta-T
°C
Wind Press
QNH
hPa
Press
MSL
hPa
Rain since
9am
mm
Dir  Spd
km/h
Gust
km/h
Spd
kts
Gust
kts
17/11:30pm 18.8 16.9 14.3 75 2.6 S 17 24 9 13 - - 0.0
17/11:00pm 19.1 17.3 14.4 74 2.7 S 17 24 9 13 - - 0.0
17/10:30pm 19.7 17.9 14.5 72 3.0 S 17 26 9 14 - - 0.0
17/10:00pm 20.5 18.0 14.2 67 3.7 S 20 33 11 18 - - 0.0
17/09:30pm 21.2 18.9 14.6 66 3.9 SSE 20 33 11 18 - - 0.0
17/09:00pm 21.8 19.8 14.9 65 4.1 SSE 19 26 10 14 - - 0.0
17/08:30pm 22.7 20.5 15.0 61 4.6 S 20 33 11 18 - - 0.0
17/08:00pm 23.5 21.5 15.5 60 4.8 S 20 32 11 17 - - 0.0
17/07:30pm 25.0 22.2 15.3 55 5.9 S 24 35 13 19 - - 0.0
17/07:00pm 27.0 25.2 15.4 49 7.1 S 19 32 10 17 - - 0.0
17/06:30pm 27.8 26.8 15.5 47 7.6 SSE 15 22 8 12 - - 0.0
17/06:00pm 27.2 26.0 13.9 44 7.9 SW 13 19 7 10 - - 0.0
17/05:30pm 28.4 27.3 13.1 39 9.1 SW 11 19 6 10 - - 0.0
17/05:00pm 28.2 27.3 14.8 44 8.1 SSW 13 19 7 10 - - 0.0
17/04:30pm 27.4 26.5 14.8 46 7.6 SSW 13 19 7 10 - - 0.0
17/04:00pm 28.5 27.2 14.7 43 8.4 SSW 15 32 8 17 - - 0.0
17/03:30pm 28.0 26.8 13.9 42 8.4 WNW 13 20 7 11 - - 0.0
17/03:00pm 27.6 28.2 15.3 47 7.5 WSW 6 19 3 10 - - 0.0
17/02:30pm 26.9 25.5 13.3 43 8.0 W 13 24 7 13 - - 0.0
17/02:00pm 26.2 26.2 15.3 51 6.6 S 9 19 5 10 - - 0.0
17/01:30pm 26.1 26.7 15.2 51 6.6 SW 6 15 3 8 - - 0.0
17/01:00pm 26.1 26.0 14.9 50 6.8 SSW 9 19 5 10 - - 0.0
17/12:30pm 25.2 24.6 14.6 51 6.4 SSW 11 19 6 10 - - 0.0
17/12:00pm 25.2 24.8 15.2 54 6.0 W 11 17 6 9 - - 0.0
17/11:30am 24.8 25.7 16.5 60 5.1 SW 7 15 4 8 - - 0.0
17/11:00am 24.3 24.6 15.0 56 5.6 WNW 7 15 4 8 - - 0.0
17/10:30am 23.8 24.0 15.8 61 4.9 W 9 15 5 8 - - 0.0
17/10:00am 22.9 24.1 15.0 61 4.7 N 2 7 1 4 - - 0.0
17/09:30am 22.4 24.0 15.0 63 4.4 CALM 0 7 0 4 - - 0.0
17/09:00am 21.1 21.4 15.0 68 3.6 E 7 9 4 5 - - 3.0
17/08:30am 19.9 20.1 14.7 72 3.1 E 7 11 4 6 - - 3.0
17/08:00am 18.9 19.0 15.6 81 2.0 SE 9 11 5 6 - - 3.0
17/07:30am 17.6 19.4 16.5 93 0.7 ESE 2 7 1 4 - - 3.0
17/07:00am 15.2 16.9 15.2 100 0.0 CALM 0 0 0 0 - - 3.0
17/06:30am 13.9 15.1 13.9 100 0.0 CALM 0 0 0 0 - - 3.0
17/06:00am 13.1 14.1 13.1 100 0.0 CALM 0 0 0 0 - - 3.0
17/05:30am 13.2 14.1 13.0 99 0.1 CALM 0 0 0 0 - - 3.0
17/05:00am 13.5 14.5 13.3 99 0.1 CALM 0 0 0 0 - - 3.0
17/04:30am 13.7 14.8 13.5 99 0.1 CALM 0 0 0 0 - - 3.0
17/04:00am 13.9 15.0 13.6 98 0.2 CALM 0 0 0 0 - - 3.0
17/03:30am 13.8 14.8 13.2 96 0.3 CALM 0 0 0 0 - - 3.0
17/03:00am 14.4 15.5 13.6 95 0.4 CALM 0 0 0 0 - - 3.0
17/02:30am 14.6 15.3 13.5 93 0.6 E 2 6 1 3 - - 3.0
17/02:00am 15.3 16.3 13.3 88 1.1 CALM 0 0 0 0 - - 3.0
17/01:30am 15.8 16.9 13.6 87 1.2 CALM 0 7 0 4 - - 3.0
17/01:00am 15.6 16.9 14.1 91 0.9 CALM 0 0 0 0 - - 3.0
17/12:30am 16.2 17.4 13.9 86 1.3 CALM 0 0 0 0 - - 3.0
17/12:00am 17.2 18.2 14.3 83 1.7 ESE 2 7 1 4 - - 3.0
 
Date/Time
EDT
Temp
°C
App
Temp
°C
Dew
Point
°C
Rel
Hum
%
Delta-T
°C
Wind Press
QNH
hPa
Press
MSL
hPa
Rain since
9am
mm
Dir  Spd
km/h
Gust
km/h
Spd
kts
Gust
kts
16/11:30pm 17.6 17.6 14.3 81 1.9 SE 7 9 4 5 - - 3.0
16/11:00pm 17.8 17.3 14.9 83 1.7 S 11 13 6 7 - - 3.0
16/10:30pm 17.7 18.2 15.1 85 1.5 SSE 6 7 3 4 - - 3.0
16/10:00pm 18.2 18.4 14.7 80 2.0 SE 7 9 4 5 - - 3.0
16/09:30pm 18.7 18.9 14.6 77 2.4 SE 7 9 4 5 - - 3.0
16/09:00pm 19.5 19.3 14.7 74 2.8 SE 9 15 5 8 - - 3.0
16/08:30pm 20.6 21.0 14.7 69 3.5 SE 6 9 3 5 - - 3.0
16/08:00pm 22.1 21.7 14.2 61 4.6 SSE 9 13 5 7 - - 3.0
16/07:30pm 23.5 22.8 13.1 52 6.0 WSW 9 17 5 9 - - 3.0
16/07:00pm 23.9 23.6 13.2 51 6.2 WNW 7 13 4 7 - - 3.0
16/06:30pm 24.5 24.6 14.0 52 6.2 W 6 11 3 6 - - 3.0
16/06:00pm 23.2 22.7 12.8 52 6.0 N 7 11 4 6 - - 3.0
16/05:30pm 23.6 22.5 13.2 52 6.0 NNW 11 19 6 10 - - 3.0
16/05:00pm 22.8 22.1 13.3 55 5.5 N 9 19 5 10 - - 3.0
16/04:30pm 22.5 21.6 12.7 54 5.6 ENE 9 15 5 8 - - 3.0

Other Formats:

Comma delimited format used in spreadsheet applications
http://www.bom.gov.au/fwo/IDV60801/IDV60801.95836.axf

JavaScript Object Notation format (JSON) in row-major order
http://www.bom.gov.au/fwo/IDV60801/IDV60801.95836.json